sensor_id;sensor_type;location;lat;lon;timestamp;temperature;humidity
32348;DHT22;18821;44.800;10.326;2023-02-08T00:01:22;0.90;99.90
32348;DHT22;18821;44.800;10.326;2023-02-08T00:03:49;0.90;99.90
32348;DHT22;18821;44.800;10.326;2023-02-08T00:06:16;0.80;99.90
32348;DHT22;18821;44.800;10.326;2023-02-08T00:08:42;0.80;99.90
32348;DHT22;18821;44.800;10.326;2023-02-08T00:11:10;0.80;99.90
32348;DHT22;18821;44.800;10.326;2023-02-08T00:13:39;0.80;99.90
32348;DHT22;18821;44.800;10.326;2023-02-08T00:16:06;0.70;1.00
32348;DHT22;18821;44.800;10.326;2023-02-08T00:18:32;0.70;1.00
32348;DHT22;18821;44.800;10.326;2023-02-08T00:20:58;0.70;99.90
32348;DHT22;18821;44.800;10.326;2023-02-08T00:23:24;0.60;99.90
32348;DHT22;18821;44.800;10.326;2023-02-08T00:25:50;0.60;99.90
32348;DHT22;18821;44.800;10.326;2023-02-08T00:28:17;0.60;99.90
32348;DHT22;18821;44.800;10.326;2023-02-08T00:30:43;0.50;7.30
32348;DHT22;18821;44.800;10.326;2023-02-08T00:33:10;0.50;1.00
32348;DHT22;18821;44.800;10.326;2023-02-08T00:35:36;0.50;1.00
32348;DHT22;18821;44.800;10.326;2023-02-08T00:38:03;0.40;1.00
32348;DHT22;18821;44.800;10.326;2023-02-08T00:40:28;0.40;99.90
32348;DHT22;18821;44.800;10.326;2023-02-08T00:42:56;0.30;99.90
32348;DHT22;18821;44.800;10.326;2023-02-08T00:45:22;0.30;99.90
32348;DHT22;18821;44.800;10.326;2023-02-08T00:47:48;0.20;99.90
32348;DHT22;18821;44.800;10.326;2023-02-08T00:50:14;0.20;99.90
32348;DHT22;18821;44.800;10.326;2023-02-08T00:52:40;0.20;92.30
32348;DHT22;18821;44.800;10.326;2023-02-08T00:55:06;0.10;99.90
32348;DHT22;18821;44.800;10.326;2023-02-08T00:57:33;0.20;99.90
32348;DHT22;18821;44.800;10.326;2023-02-08T00:59:59;0.20;99.90
32348;DHT22;18821;44.800;10.326;2023-02-08T01:02:25;0.10;1.00
32348;DHT22;18821;44.800;10.326;2023-02-08T01:04:52;0.10;1.00
32348;DHT22;18821;44.800;10.326;2023-02-08T01:07:18;0.00;1.00
32348;DHT22;18821;44.800;10.326;2023-02-08T01:09:44;0.10;1.00
32348;DHT22;18821;44.800;10.326;2023-02-08T01:12:11;0.10;1.00
32348;DHT22;18821;44.800;10.326;2023-02-08T01:14:39;0.00;1.00
32348;DHT22;18821;44.800;10.326;2023-02-08T01:17:05;0.10;1.00
32348;DHT22;18821;44.800;10.326;2023-02-08T01:19:34;0.00;42.00
32348;DHT22;18821;44.800;10.326;2023-02-08T01:22:02;0.10;1.00
32348;DHT22;18821;44.800;10.326;2023-02-08T01:24:28;0.00;1.00
32348;DHT22;18821;44.800;10.326;2023-02-08T01:26:54;0.00;1.00
32348;DHT22;18821;44.800;10.326;2023-02-08T01:29:20;-0.10;1.00
32348;DHT22;18821;44.800;10.326;2023-02-08T01:31:46;-0.20;1.00
32348;DHT22;18821;44.800;10.326;2023-02-08T01:34:12;-0.20;1.00
32348;DHT22;18821;44.800;10.326;2023-02-08T01:36:40;-0.10;1.00
32348;DHT22;18821;44.800;10.326;2023-02-08T01:39:09;-0.10;1.00
32348;DHT22;18821;44.800;10.326;2023-02-08T01:41:39;-0.10;1.00
32348;DHT22;18821;44.800;10.326;2023-02-08T01:46:43;-0.10;78.50
32348;DHT22;18821;44.800;10.326;2023-02-08T01:49:14;-0.10;77.20
32348;DHT22;18821;44.800;10.326;2023-02-08T01:52:04;-0.10;1.00
32348;DHT22;18821;44.800;10.326;2023-02-08T01:54:52;-0.20;99.90
32348;DHT22;18821;44.800;10.326;2023-02-08T01:57:21;-0.30;99.90
32348;DHT22;18821;44.800;10.326;2023-02-08T01:59:51;-0.30;99.90
32348;DHT22;18821;44.800;10.326;2023-02-08T02:02:22;-0.40;99.90
32348;DHT22;18821;44.800;10.326;2023-02-08T02:04:50;-0.40;1.00
32348;DHT22;18821;44.800;10.326;2023-02-08T02:07:18;-0.40;1.00
32348;DHT22;18821;44.800;10.326;2023-02-08T02:10:02;-0.40;1.00
32348;DHT22;18821;44.800;10.326;2023-02-08T02:12:31;-0.50;1.00
32348;DHT22;18821;44.800;10.326;2023-02-08T02:14:58;-0.50;1.00
32348;DHT22;18821;44.800;10.326;2023-02-08T02:17:26;-0.50;1.00
32348;DHT22;18821;44.800;10.326;2023-02-08T02:39:39;-0.60;99.90
32348;DHT22;18821;44.800;10.326;2023-02-08T02:42:35;-0.70;99.90
32348;DHT22;18821;44.800;10.326;2023-02-08T02:51:04;-0.60;99.90
32348;DHT22;18821;44.800;10.326;2023-02-08T02:53:40;-0.70;99.90
32348;DHT22;18821;44.800;10.326;2023-02-08T02:56:32;-0.70;99.90
32348;DHT22;18821;44.800;10.326;2023-02-08T02:59:04;-0.60;99.90
32348;DHT22;18821;44.800;10.326;2023-02-08T03:01:32;-0.60;99.90
32348;DHT22;18821;44.800;10.326;2023-02-08T03:03:58;-0.60;99.90
32348;DHT22;18821;44.800;10.326;2023-02-08T03:09:32;-0.70;99.90
32348;DHT22;18821;44.800;10.326;2023-02-08T03:15:03;-0.70;99.90
32348;DHT22;18821;44.800;10.326;2023-02-08T03:33:02;-0.90;99.90
32348;DHT22;18821;44.800;10.326;2023-02-08T03:40:26;-0.90;99.90
32348;DHT22;18821;44.800;10.326;2023-02-08T03:42:55;-0.90;99.90
32348;DHT22;18821;44.800;10.326;2023-02-08T03:45:37;-1.00;99.90
32348;DHT22;18821;44.800;10.326;2023-02-08T03:48:06;-1.00;99.90
32348;DHT22;18821;44.800;10.326;2023-02-08T03:50:38;-1.10;99.90
32348;DHT22;18821;44.800;10.326;2023-02-08T03:53:06;-1.10;99.90
32348;DHT22;18821;44.800;10.326;2023-02-08T03:55:34;-1.00;99.90
32348;DHT22;18821;44.800;10.326;2023-02-08T03:58:22;-1.10;99.90
32348;DHT22;18821;44.800;10.326;2023-02-08T04:01:12;-1.10;99.90
32348;DHT22;18821;44.800;10.326;2023-02-08T04:03:40;-1.20;99.90
32348;DHT22;18821;44.800;10.326;2023-02-08T04:06:09;-1.20;99.90
32348;DHT22;18821;44.800;10.326;2023-02-08T04:08:35;-1.30;99.90
32348;DHT22;18821;44.800;10.326;2023-02-08T04:11:01;-1.40;99.90
32348;DHT22;18821;44.800;10.326;2023-02-08T04:13:27;-1.50;99.90
32348;DHT22;18821;44.800;10.326;2023-02-08T04:15:53;-1.50;99.90
32348;DHT22;18821;44.800;10.326;2023-02-08T04:18:19;-1.50;99.90
32348;DHT22;18821;44.800;10.326;2023-02-08T04:20:45;-1.50;99.90
32348;DHT22;18821;44.800;10.326;2023-02-08T04:23:11;-1.50;99.90
32348;DHT22;18821;44.800;10.326;2023-02-08T04:25:37;-1.60;99.90
32348;DHT22;18821;44.800;10.326;2023-02-08T04:28:03;-1.50;99.90
32348;DHT22;18821;44.800;10.326;2023-02-08T04:30:29;-1.60;99.90
32348;DHT22;18821;44.800;10.326;2023-02-08T04:32:55;-1.70;1.00
32348;DHT22;18821;44.800;10.326;2023-02-08T04:35:21;-1.80;1.00
32348;DHT22;18821;44.800;10.326;2023-02-08T04:37:47;-1.80;1.00
32348;DHT22;18821;44.800;10.326;2023-02-08T04:40:14;-1.80;1.00
32348;DHT22;18821;44.800;10.326;2023-02-08T04:42:41;-1.90;1.00
32348;DHT22;18821;44.800;10.326;2023-02-08T04:45:08;-1.90;1.00
32348;DHT22;18821;44.800;10.326;2023-02-08T04:47:35;-1.90;1.00
32348;DHT22;18821;44.800;10.326;2023-02-08T04:50:03;-1.90;1.00
32348;DHT22;18821;44.800;10.326;2023-02-08T04:52:30;-1.80;1.00
32348;DHT22;18821;44.800;10.326;2023-02-08T04:54:56;-1.70;1.00
32348;DHT22;18821;44.800;10.326;2023-02-08T04:57:22;-1.70;1.00
32348;DHT22;18821;44.800;10.326;2023-02-08T04:59:48;-1.70;1.00
32348;DHT22;18821;44.800;10.326;2023-02-08T05:02:14;-1.70;1.00
32348;DHT22;18821;44.800;10.326;2023-02-08T05:04:40;-1.60;1.00
32348;DHT22;18821;44.800;10.326;2023-02-08T05:07:06;-1.60;1.00
32348;DHT22;18821;44.800;10.326;2023-02-08T05:09:32;-1.60;1.00
32348;DHT22;18821;44.800;10.326;2023-02-08T05:11:58;-1.60;1.00
32348;DHT22;18821;44.800;10.326;2023-02-08T05:14:24;-1.60;1.00
32348;DHT22;18821;44.800;10.326;2023-02-08T05:16:50;-1.50;1.00
32348;DHT22;18821;44.800;10.326;2023-02-08T05:19:16;-1.70;1.00
32348;DHT22;18821;44.800;10.326;2023-02-08T05:21:42;-1.80;1.00
32348;DHT22;18821;44.800;10.326;2023-02-08T05:24:08;-1.70;1.00
32348;DHT22;18821;44.800;10.326;2023-02-08T05:26:38;-1.70;1.00
32348;DHT22;18821;44.800;10.326;2023-02-08T05:29:04;-1.70;1.00
32348;DHT22;18821;44.800;10.326;2023-02-08T05:31:30;-1.70;1.00
32348;DHT22;18821;44.800;10.326;2023-02-08T05:33:56;-1.70;1.00
32348;DHT22;18821;44.800;10.326;2023-02-08T05:36:23;-1.80;1.00
32348;DHT22;18821;44.800;10.326;2023-02-08T05:38:49;-1.70;1.00
32348;DHT22;18821;44.800;10.326;2023-02-08T05:41:16;-1.80;1.00
32348;DHT22;18821;44.800;10.326;2023-02-08T05:43:42;-1.70;1.00
32348;DHT22;18821;44.800;10.326;2023-02-08T05:46:08;-1.70;1.00
32348;DHT22;18821;44.800;10.326;2023-02-08T05:48:34;-1.70;1.00
32348;DHT22;18821;44.800;10.326;2023-02-08T05:51:00;-1.70;1.00
32348;DHT22;18821;44.800;10.326;2023-02-08T05:53:26;-1.70;1.00
32348;DHT22;18821;44.800;10.326;2023-02-08T05:55:52;-1.70;1.00
32348;DHT22;18821;44.800;10.326;2023-02-08T05:58:18;-1.70;1.00
32348;DHT22;18821;44.800;10.326;2023-02-08T06:00:44;-1.80;1.00
32348;DHT22;18821;44.800;10.326;2023-02-08T06:03:10;-1.80;1.00
32348;DHT22;18821;44.800;10.326;2023-02-08T06:05:37;-1.80;1.00
32348;DHT22;18821;44.800;10.326;2023-02-08T06:08:04;-1.70;1.00
32348;DHT22;18821;44.800;10.326;2023-02-08T06:10:30;-1.70;1.00
32348;DHT22;18821;44.800;10.326;2023-02-08T06:12:56;-1.80;1.00
32348;DHT22;18821;44.800;10.326;2023-02-08T06:15:22;-1.70;1.00
32348;DHT22;18821;44.800;10.326;2023-02-08T06:17:49;-1.70;1.00
32348;DHT22;18821;44.800;10.326;2023-02-08T06:20:15;-1.70;1.00
32348;DHT22;18821;44.800;10.326;2023-02-08T06:22:41;-1.70;1.00
32348;DHT22;18821;44.800;10.326;2023-02-08T06:25:09;-1.60;1.00
32348;DHT22;18821;44.800;10.326;2023-02-08T06:27:35;-1.60;1.00
32348;DHT22;18821;44.800;10.326;2023-02-08T06:30:01;-1.60;1.00
32348;DHT22;18821;44.800;10.326;2023-02-08T06:32:27;-1.70;1.00
32348;DHT22;18821;44.800;10.326;2023-02-08T06:34:53;-1.60;1.00
32348;DHT22;18821;44.800;10.326;2023-02-08T06:37:19;-1.60;1.00
32348;DHT22;18821;44.800;10.326;2023-02-08T06:39:45;-1.50;1.00
32348;DHT22;18821;44.800;10.326;2023-02-08T06:42:11;-1.50;1.00
32348;DHT22;18821;44.800;10.326;2023-02-08T06:44:37;-1.50;1.00
32348;DHT22;18821;44.800;10.326;2023-02-08T06:47:03;-1.50;1.00
32348;DHT22;18821;44.800;10.326;2023-02-08T06:49:29;-1.40;1.00
32348;DHT22;18821;44.800;10.326;2023-02-08T06:51:55;-1.40;1.00
32348;DHT22;18821;44.800;10.326;2023-02-08T06:54:21;-1.40;1.00
32348;DHT22;18821;44.800;10.326;2023-02-08T06:56:47;-1.30;1.00
32348;DHT22;18821;44.800;10.326;2023-02-08T06:59:13;-1.30;1.00
32348;DHT22;18821;44.800;10.326;2023-02-08T07:01:39;-1.30;1.00
32348;DHT22;18821;44.800;10.326;2023-02-08T07:04:05;-1.20;1.00
32348;DHT22;18821;44.800;10.326;2023-02-08T07:06:32;-1.20;1.00
32348;DHT22;18821;44.800;10.326;2023-02-08T07:08:58;-1.20;1.00
32348;DHT22;18821;44.800;10.326;2023-02-08T07:11:24;-1.10;1.00
32348;DHT22;18821;44.800;10.326;2023-02-08T07:13:50;-1.10;1.00
32348;DHT22;18821;44.800;10.326;2023-02-08T07:16:18;-1.00;1.00
32348;DHT22;18821;44.800;10.326;2023-02-08T07:18:44;-0.90;1.00
32348;DHT22;18821;44.800;10.326;2023-02-08T07:21:10;-0.90;1.00
32348;DHT22;18821;44.800;10.326;2023-02-08T07:23:37;-0.80;1.00
32348;DHT22;18821;44.800;10.326;2023-02-08T07:26:06;-0.70;1.00
32348;DHT22;18821;44.800;10.326;2023-02-08T07:28:33;-0.70;1.00
32348;DHT22;18821;44.800;10.326;2023-02-08T07:31:04;-0.60;1.00
32348;DHT22;18821;44.800;10.326;2023-02-08T07:33:30;-0.60;99.90
32348;DHT22;18821;44.800;10.326;2023-02-08T07:35:56;-0.50;99.90
32348;DHT22;18821;44.800;10.326;2023-02-08T07:38:22;-0.50;99.90
32348;DHT22;18821;44.800;10.326;2023-02-08T07:40:48;-0.40;99.90
32348;DHT22;18821;44.800;10.326;2023-02-08T07:43:14;-0.40;99.90
32348;DHT22;18821;44.800;10.326;2023-02-08T07:45:50;-0.30;99.90
32348;DHT22;18821;44.800;10.326;2023-02-08T07:48:16;-0.10;99.90
32348;DHT22;18821;44.800;10.326;2023-02-08T07:50:42;-0.20;99.90
32348;DHT22;18821;44.800;10.326;2023-02-08T07:53:08;-0.20;99.90
32348;DHT22;18821;44.800;10.326;2023-02-08T07:55:34;-0.20;99.90
32348;DHT22;18821;44.800;10.326;2023-02-08T07:58:00;-0.20;99.90
32348;DHT22;18821;44.800;10.326;2023-02-08T08:00:26;-0.20;99.90
32348;DHT22;18821;44.800;10.326;2023-02-08T08:02:53;-0.20;99.90
32348;DHT22;18821;44.800;10.326;2023-02-08T08:05:19;0.00;99.90
32348;DHT22;18821;44.800;10.326;2023-02-08T08:07:46;0.10;99.90
32348;DHT22;18821;44.800;10.326;2023-02-08T08:10:12;0.10;99.90
32348;DHT22;18821;44.800;10.326;2023-02-08T08:12:38;0.10;59.50
32348;DHT22;18821;44.800;10.326;2023-02-08T08:15:04;0.30;95.40
32348;DHT22;18821;44.800;10.326;2023-02-08T08:17:31;0.40;1.00
32348;DHT22;18821;44.800;10.326;2023-02-08T08:19:57;0.40;1.00
32348;DHT22;18821;44.800;10.326;2023-02-08T08:22:23;0.60;1.00
32348;DHT22;18821;44.800;10.326;2023-02-08T08:24:48;0.70;1.00
32348;DHT22;18821;44.800;10.326;2023-02-08T08:27:14;0.90;1.00
32348;DHT22;18821;44.800;10.326;2023-02-08T08:29:40;1.00;99.90
32348;DHT22;18821;44.800;10.326;2023-02-08T08:32:06;1.10;99.90
32348;DHT22;18821;44.800;10.326;2023-02-08T08:34:33;1.30;99.90
32348;DHT22;18821;44.800;10.326;2023-02-08T08:37:00;1.50;1.00
32348;DHT22;18821;44.800;10.326;2023-02-08T08:39:27;1.50;99.90
32348;DHT22;18821;44.800;10.326;2023-02-08T08:41:59;1.50;99.90
32348;DHT22;18821;44.800;10.326;2023-02-08T08:44:25;1.60;48.30
32348;DHT22;18821;44.800;10.326;2023-02-08T08:46:58;1.80;1.00
32348;DHT22;18821;44.800;10.326;2023-02-08T08:49:26;1.70;99.90
32348;DHT22;18821;44.800;10.326;2023-02-08T08:51:53;1.80;1.00
32348;DHT22;18821;44.800;10.326;2023-02-08T08:54:20;1.80;99.90
32348;DHT22;18821;44.800;10.326;2023-02-08T08:56:47;2.00;1.00
32348;DHT22;18821;44.800;10.326;2023-02-08T08:59:13;2.10;1.00
32348;DHT22;18821;44.800;10.326;2023-02-08T09:01:39;2.10;99.90
32348;DHT22;18821;44.800;10.326;2023-02-08T09:04:07;2.20;99.90
32348;DHT22;18821;44.800;10.326;2023-02-08T09:06:34;2.40;60.40
32348;DHT22;18821;44.800;10.326;2023-02-08T09:09:00;2.60;1.00
32348;DHT22;18821;44.800;10.326;2023-02-08T09:11:26;2.60;1.00
32348;DHT22;18821;44.800;10.326;2023-02-08T09:13:53;2.80;1.00
32348;DHT22;18821;44.800;10.326;2023-02-08T09:16:22;3.00;99.90
32348;DHT22;18821;44.800;10.326;2023-02-08T09:18:48;3.10;99.90
32348;DHT22;18821;44.800;10.326;2023-02-08T09:21:17;3.00;1.00
32348;DHT22;18821;44.800;10.326;2023-02-08T09:23:43;2.50;62.10
32348;DHT22;18821;44.800;10.326;2023-02-08T09:26:14;2.50;99.90
32348;DHT22;18821;44.800;10.326;2023-02-08T09:28:41;2.60;1.00
32348;DHT22;18821;44.800;10.326;2023-02-08T09:31:34;2.60;99.90
32348;DHT22;18821;44.800;10.326;2023-02-08T09:34:02;2.70;1.00
32348;DHT22;18821;44.800;10.326;2023-02-08T09:36:35;2.80;1.00
32348;DHT22;18821;44.800;10.326;2023-02-08T09:39:28;2.80;1.00
32348;DHT22;18821;44.800;10.326;2023-02-08T09:47:35;2.90;77.60
32348;DHT22;18821;44.800;10.326;2023-02-08T09:53:17;2.90;35.30
32348;DHT22;18821;44.800;10.326;2023-02-08T09:55:48;3.20;1.00
32348;DHT22;18821;44.800;10.326;2023-02-08T09:58:26;3.20;99.90
32348;DHT22;18821;44.800;10.326;2023-02-08T10:00:54;3.40;1.00
32348;DHT22;18821;44.800;10.326;2023-02-08T10:03:28;3.50;1.00
32348;DHT22;18821;44.800;10.326;2023-02-08T10:05:57;3.80;99.90
32348;DHT22;18821;44.800;10.326;2023-02-08T10:08:26;3.90;1.00
32348;DHT22;18821;44.800;10.326;2023-02-08T10:13:40;4.30;99.90
32348;DHT22;18821;44.800;10.326;2023-02-08T10:16:35;4.40;57.50
32348;DHT22;18821;44.800;10.326;2023-02-08T10:19:13;4.10;99.90
32348;DHT22;18821;44.800;10.326;2023-02-08T10:24:48;4.40;99.90
32348;DHT22;18821;44.800;10.326;2023-02-08T10:30:27;4.40;1.00
32348;DHT22;18821;44.800;10.326;2023-02-08T10:35:48;4.40;1.00
32348;DHT22;18821;44.800;10.326;2023-02-08T10:38:27;4.40;1.00
32348;DHT22;18821;44.800;10.326;2023-02-08T10:40:58;4.40;1.00
32348;DHT22;18821;44.800;10.326;2023-02-08T10:51:03;4.60;1.00
32348;DHT22;18821;44.800;10.326;2023-02-08T10:53:31;4.60;1.00
32348;DHT22;18821;44.800;10.326;2023-02-08T10:55:57;4.70;1.00
32348;DHT22;18821;44.800;10.326;2023-02-08T10:58:24;4.70;1.00
32348;DHT22;18821;44.800;10.326;2023-02-08T11:00:54;4.60;1.00
32348;DHT22;18821;44.800;10.326;2023-02-08T11:03:24;4.60;1.00
32348;DHT22;18821;44.800;10.326;2023-02-08T11:05:51;4.60;40.40
32348;DHT22;18821;44.800;10.326;2023-02-08T11:08:19;4.70;99.90
32348;DHT22;18821;44.800;10.326;2023-02-08T11:11:02;4.70;29.80
32348;DHT22;18821;44.800;10.326;2023-02-08T11:13:42;4.50;99.90
32348;DHT22;18821;44.800;10.326;2023-02-08T11:16:10;4.70;99.90
32348;DHT22;18821;44.800;10.326;2023-02-08T11:18:46;4.60;99.90
32348;DHT22;18821;44.800;10.326;2023-02-08T11:24:00;4.50;99.90
32348;DHT22;18821;44.800;10.326;2023-02-08T11:34:46;4.90;1.00
32348;DHT22;18821;44.800;10.326;2023-02-08T11:37:17;4.90;1.00
32348;DHT22;18821;44.800;10.326;2023-02-08T11:39:52;5.10;1.00
32348;DHT22;18821;44.800;10.326;2023-02-08T11:42:21;5.20;1.00
32348;DHT22;18821;44.800;10.326;2023-02-08T11:44:49;5.10;1.00
32348;DHT22;18821;44.800;10.326;2023-02-08T11:47:23;5.20;1.00
32348;DHT22;18821;44.800;10.326;2023-02-08T11:49:58;5.20;1.00
32348;DHT22;18821;44.800;10.326;2023-02-08T11:52:28;5.40;1.00
32348;DHT22;18821;44.800;10.326;2023-02-08T11:55:13;5.30;99.90
32348;DHT22;18821;44.800;10.326;2023-02-08T12:00:33;5.20;1.00
32348;DHT22;18821;44.800;10.326;2023-02-08T12:05:37;5.10;1.00
32348;DHT22;18821;44.800;10.326;2023-02-08T12:21:23;5.40;1.00
32348;DHT22;18821;44.800;10.326;2023-02-08T12:23:58;5.40;99.90
32348;DHT22;18821;44.800;10.326;2023-02-08T12:41:31;5.70;99.90
32348;DHT22;18821;44.800;10.326;2023-02-08T12:44:53;5.80;99.90
32348;DHT22;18821;44.800;10.326;2023-02-08T12:52:43;5.70;99.90
32348;DHT22;18821;44.800;10.326;2023-02-08T12:55:30;5.70;99.90
32348;DHT22;18821;44.800;10.326;2023-02-08T12:58:20;5.50;99.90
32348;DHT22;18821;44.800;10.326;2023-02-08T13:00:49;5.50;99.90
32348;DHT22;18821;44.800;10.326;2023-02-08T13:05:56;5.50;99.90
32348;DHT22;18821;44.800;10.326;2023-02-08T13:08:52;5.50;99.90
32348;DHT22;18821;44.800;10.326;2023-02-08T13:11:29;5.60;99.90
32348;DHT22;18821;44.800;10.326;2023-02-08T13:14:12;5.40;99.90
32348;DHT22;18821;44.800;10.326;2023-02-08T13:16:45;5.40;99.90
32348;DHT22;18821;44.800;10.326;2023-02-08T13:21:51;5.60;99.90
32348;DHT22;18821;44.800;10.326;2023-02-08T13:26:46;5.80;99.90
32348;DHT22;18821;44.800;10.326;2023-02-08T13:29:19;5.80;99.90
32348;DHT22;18821;44.800;10.326;2023-02-08T13:31:57;5.80;99.90
32348;DHT22;18821;44.800;10.326;2023-02-08T13:34:41;5.90;99.90
32348;DHT22;18821;44.800;10.326;2023-02-08T13:37:28;6.10;99.90
32348;DHT22;18821;44.800;10.326;2023-02-08T13:40:05;6.20;99.90
32348;DHT22;18821;44.800;10.326;2023-02-08T13:42:39;6.30;99.90
32348;DHT22;18821;44.800;10.326;2023-02-08T13:45:39;6.20;65.00
32348;DHT22;18821;44.800;10.326;2023-02-08T13:48:09;6.10;99.90
32348;DHT22;18821;44.800;10.326;2023-02-08T13:50:41;6.10;74.30
32348;DHT22;18821;44.800;10.326;2023-02-08T13:53:07;6.30;44.40
32348;DHT22;18821;44.800;10.326;2023-02-08T13:55:53;6.00;1.00
32348;DHT22;18821;44.800;10.326;2023-02-08T14:01:20;5.80;1.00
32348;DHT22;18821;44.800;10.326;2023-02-08T14:06:48;5.50;30.20
32348;DHT22;18821;44.800;10.326;2023-02-08T14:12:10;5.40;76.40
32348;DHT22;18821;44.800;10.326;2023-02-08T14:14:38;5.30;99.90
32348;DHT22;18821;44.800;10.326;2023-02-08T14:17:26;5.30;99.90
32348;DHT22;18821;44.800;10.326;2023-02-08T14:19:58;5.30;99.90
32348;DHT22;18821;44.800;10.326;2023-02-08T14:22:30;5.40;99.90
32348;DHT22;18821;44.800;10.326;2023-02-08T14:25:02;5.50;99.90
32348;DHT22;18821;44.800;10.326;2023-02-08T14:32:29;5.30;99.90
32348;DHT22;18821;44.800;10.326;2023-02-08T14:35:22;5.20;99.90
32348;DHT22;18821;44.800;10.326;2023-02-08T14:43:30;5.10;99.90
32348;DHT22;18821;44.800;10.326;2023-02-08T14:49:07;5.00;99.90
32348;DHT22;18821;44.800;10.326;2023-02-08T14:51:38;5.10;99.90
32348;DHT22;18821;44.800;10.326;2023-02-08T14:54:20;5.10;99.90
32348;DHT22;18821;44.800;10.326;2023-02-08T14:57:23;5.00;99.90
32348;DHT22;18821;44.800;10.326;2023-02-08T14:59:51;5.10;99.90
32348;DHT22;18821;44.800;10.326;2023-02-08T15:02:22;5.10;99.90
32348;DHT22;18821;44.800;10.326;2023-02-08T15:04:57;5.10;99.90
32348;DHT22;18821;44.800;10.326;2023-02-08T15:09:49;5.00;99.90
32348;DHT22;18821;44.800;10.326;2023-02-08T15:14:47;5.00;99.90
32348;DHT22;18821;44.800;10.326;2023-02-08T15:19:50;4.90;1.00
32348;DHT22;18821;44.800;10.326;2023-02-08T15:22:17;4.90;1.00
32348;DHT22;18821;44.800;10.326;2023-02-08T15:24:57;4.90;1.00
32348;DHT22;18821;44.800;10.326;2023-02-08T15:27:31;4.90;1.00
32348;DHT22;18821;44.800;10.326;2023-02-08T15:29:58;4.90;1.00
32348;DHT22;18821;44.800;10.326;2023-02-08T15:32:27;4.80;1.00
32348;DHT22;18821;44.800;10.326;2023-02-08T15:34:55;4.80;1.00
32348;DHT22;18821;44.800;10.326;2023-02-08T15:37:22;4.80;99.90
32348;DHT22;18821;44.800;10.326;2023-02-08T15:39:52;4.80;99.90
32348;DHT22;18821;44.800;10.326;2023-02-08T15:42:21;4.70;99.90
32348;DHT22;18821;44.800;10.326;2023-02-08T15:44:48;4.70;99.90
32348;DHT22;18821;44.800;10.326;2023-02-08T15:47:26;4.70;99.90
32348;DHT22;18821;44.800;10.326;2023-02-08T15:49:53;4.60;99.90
32348;DHT22;18821;44.800;10.326;2023-02-08T15:52:27;4.60;99.90
32348;DHT22;18821;44.800;10.326;2023-02-08T15:54:55;4.50;99.90
32348;DHT22;18821;44.800;10.326;2023-02-08T15:57:58;4.50;1.00
32348;DHT22;18821;44.800;10.326;2023-02-08T16:00:29;4.50;1.00
32348;DHT22;18821;44.800;10.326;2023-02-08T16:03:03;4.50;1.00
32348;DHT22;18821;44.800;10.326;2023-02-08T16:05:34;4.40;1.00
32348;DHT22;18821;44.800;10.326;2023-02-08T16:08:01;4.40;18.20
32348;DHT22;18821;44.800;10.326;2023-02-08T16:10:34;4.30;99.90
32348;DHT22;18821;44.800;10.326;2023-02-08T16:13:19;4.20;99.90
32348;DHT22;18821;44.800;10.326;2023-02-08T16:15:49;4.20;92.50
32348;DHT22;18821;44.800;10.326;2023-02-08T16:18:39;4.20;1.00
32348;DHT22;18821;44.800;10.326;2023-02-08T16:23:52;4.00;1.00
32348;DHT22;18821;44.800;10.326;2023-02-08T16:26:28;3.90;1.00
32348;DHT22;18821;44.800;10.326;2023-02-08T16:31:45;3.80;94.10
32348;DHT22;18821;44.800;10.326;2023-02-08T16:34:18;3.80;1.00
32348;DHT22;18821;44.800;10.326;2023-02-08T16:36:48;3.70;1.00
32348;DHT22;18821;44.800;10.326;2023-02-08T16:44:34;3.60;1.00
32348;DHT22;18821;44.800;10.326;2023-02-08T16:47:23;3.60;1.00
32348;DHT22;18821;44.800;10.326;2023-02-08T16:49:50;3.50;22.70
32348;DHT22;18821;44.800;10.326;2023-02-08T16:52:18;3.50;99.90
32348;DHT22;18821;44.800;10.326;2023-02-08T16:54:44;3.40;99.90
32348;DHT22;18821;44.800;10.326;2023-02-08T16:57:10;3.40;99.90
32348;DHT22;18821;44.800;10.326;2023-02-08T16:59:36;3.40;99.90
32348;DHT22;18821;44.800;10.326;2023-02-08T17:02:02;3.30;99.90
32348;DHT22;18821;44.800;10.326;2023-02-08T17:04:27;3.30;1.00
32348;DHT22;18821;44.800;10.326;2023-02-08T17:06:53;3.20;1.00
32348;DHT22;18821;44.800;10.326;2023-02-08T17:09:20;3.20;1.00
32348;DHT22;18821;44.800;10.326;2023-02-08T17:11:47;3.10;99.90
32348;DHT22;18821;44.800;10.326;2023-02-08T17:14:13;3.10;91.60
32348;DHT22;18821;44.800;10.326;2023-02-08T17:16:39;3.00;99.90
32348;DHT22;18821;44.800;10.326;2023-02-08T17:19:05;3.00;99.90
32348;DHT22;18821;44.800;10.326;2023-02-08T17:21:31;3.00;1.00
32348;DHT22;18821;44.800;10.326;2023-02-08T17:23:58;2.90;99.90
32348;DHT22;18821;44.800;10.326;2023-02-08T17:26:26;2.90;99.90
32348;DHT22;18821;44.800;10.326;2023-02-08T17:28:55;2.80;1.00
32348;DHT22;18821;44.800;10.326;2023-02-08T17:31:22;2.80;99.90
32348;DHT22;18821;44.800;10.326;2023-02-08T17:33:48;2.80;99.90
32348;DHT22;18821;44.800;10.326;2023-02-08T17:36:15;2.80;99.90
32348;DHT22;18821;44.800;10.326;2023-02-08T17:38:43;2.70;99.90
32348;DHT22;18821;44.800;10.326;2023-02-08T17:41:18;2.80;44.20
32348;DHT22;18821;44.800;10.326;2023-02-08T17:43:49;2.70;1.00
32348;DHT22;18821;44.800;10.326;2023-02-08T17:46:20;2.70;1.00
32348;DHT22;18821;44.800;10.326;2023-02-08T17:48:46;2.60;1.00
32348;DHT22;18821;44.800;10.326;2023-02-08T17:51:17;2.60;1.00
32348;DHT22;18821;44.800;10.326;2023-02-08T17:53:44;2.60;1.00
32348;DHT22;18821;44.800;10.326;2023-02-08T17:56:11;2.60;1.00
32348;DHT22;18821;44.800;10.326;2023-02-08T17:58:39;2.50;1.00
32348;DHT22;18821;44.800;10.326;2023-02-08T18:01:06;2.50;1.00
32348;DHT22;18821;44.800;10.326;2023-02-08T18:03:32;2.50;1.00
32348;DHT22;18821;44.800;10.326;2023-02-08T18:05:59;2.40;1.00
32348;DHT22;18821;44.800;10.326;2023-02-08T18:08:27;2.40;1.00
32348;DHT22;18821;44.800;10.326;2023-02-08T18:10:54;2.40;99.90
32348;DHT22;18821;44.800;10.326;2023-02-08T18:13:20;2.30;1.00
32348;DHT22;18821;44.800;10.326;2023-02-08T18:15:46;2.30;99.90
32348;DHT22;18821;44.800;10.326;2023-02-08T18:18:12;2.20;1.00
32348;DHT22;18821;44.800;10.326;2023-02-08T18:20:44;2.20;1.00
32348;DHT22;18821;44.800;10.326;2023-02-08T18:23:14;2.20;34.00
32348;DHT22;18821;44.800;10.326;2023-02-08T18:25:40;2.10;1.00
32348;DHT22;18821;44.800;10.326;2023-02-08T18:28:07;2.10;99.90
32348;DHT22;18821;44.800;10.326;2023-02-08T18:30:34;2.10;99.90
32348;DHT22;18821;44.800;10.326;2023-02-08T18:33:00;2.10;1.00
32348;DHT22;18821;44.800;10.326;2023-02-08T18:35:26;2.20;1.00
32348;DHT22;18821;44.800;10.326;2023-02-08T18:37:52;2.10;1.00
32348;DHT22;18821;44.800;10.326;2023-02-08T18:40:18;2.10;10.10
32348;DHT22;18821;44.800;10.326;2023-02-08T18:42:44;2.10;1.00
32348;DHT22;18821;44.800;10.326;2023-02-08T18:45:10;2.10;1.00
32348;DHT22;18821;44.800;10.326;2023-02-08T18:47:36;2.10;99.90
32348;DHT22;18821;44.800;10.326;2023-02-08T18:50:04;2.10;1.00